Terminal Aerodrome Forecast
Issued by NWS Detroit/Pontiac, MI

Home | Current Version | Previous Version | Text Only | Print | Product List | Glossary On
Versions: 1 2 3 4 5 6 7 8 9 10 11 12 13 14 15 16
000
FTUS43 KDTX 301100
TAFFNT
TAF
KFNT 301120Z 3012/0112 34009KT 6SM -DZ BR BKN008 OVC012
     FM301400 35008KT P6SM SCT010 OVC015
     FM302300 02005KT P6SM OVC012
     FM010800 VRB03KT 2SM BR OVC005=

USA.gov is the U.S. government's official web portal to all federal, state and local government web resources and services.